Time;durP1;ratioP1;P1;durP2;ratioP2;P2;SDS_P1;SDS_P2;PMS_P1;PMS_P2;Temp;Humidity;BMP_temperature;BMP_pressure;BME280_temperature;BME280_humidity;BME280_pressure;Samples;Min_cycle;Max_cycle;Signal;HPM_P1;HPM_P2
2023/08/16 00:02:05;;;;;;;7.60;3.60;;;;;;;22.01;100.00;-18618.28;5041588;28;20068;-76
2023/08/16 00:04:31;;;;;;;5.95;3.35;;;;;;;22.08;100.00;-18620.19;5049761;28;20110;-77
2023/08/16 00:06:57;;;;;;;5.95;3.30;;;;;;;21.91;100.00;-18615.56;5042002;28;20047;-77
2023/08/16 00:09:22;;;;;;;5.90;3.20;;;;;;;21.92;100.00;-18615.97;5041117;28;20045;-77
2023/08/16 00:11:48;;;;;;;5.63;3.30;;;;;;;22.08;100.00;-18620.31;5041929;28;20186;-76
2023/08/16 00:14:13;;;;;;;6.75;3.70;;;;;;;22.22;100.00;-18623.84;5040784;28;20123;-77
2023/08/16 00:16:40;;;;;;;7.20;3.17;;;;;;;22.14;100.00;-18621.66;5041028;28;20037;-76
2023/08/16 00:19:05;;;;;;;7.38;3.42;;;;;;;22.29;100.00;-18625.75;5040492;28;20037;-76
2023/08/16 00:21:31;;;;;;;7.82;3.30;;;;;;;22.23;100.00;-18624.13;5041165;28;20033;-77
2023/08/16 00:23:57;;;;;;;4.22;2.92;;;;;;;22.27;100.00;-18625.34;5041393;28;20108;-77
2023/08/16 00:26:22;;;;;;;6.07;3.28;;;;;;;22.36;100.00;-18627.66;5040061;28;20393;-77
2023/08/16 00:28:49;;;;;;;5.00;3.30;;;;;;;22.40;100.00;-18628.75;5040946;28;20044;-76
2023/08/16 00:31:15;;;;;;;6.97;3.38;;;;;;;22.27;100.00;-18625.22;5056560;28;20032;-76
2023/08/16 00:33:40;;;;;;;5.35;3.30;;;;;;;22.17;100.00;-18622.63;5038164;28;20045;-76
2023/08/16 00:36:07;;;;;;;5.57;3.30;;;;;;;21.97;100.00;-18617.19;5040124;28;20041;-77
2023/08/16 00:38:33;;;;;;;8.70;3.70;;;;;;;21.95;100.00;-18616.66;5041318;28;20061;-76
2023/08/16 00:40:58;;;;;;;8.35;3.80;;;;;;;21.96;100.00;-18617.06;5041011;28;20072;-76
2023/08/16 00:43:24;;;;;;;8.73;4.05;;;;;;;21.93;100.00;-18616.25;5041233;28;20037;-77
2023/08/16 00:45:50;;;;;;;6.97;3.33;;;;;;;21.80;100.00;-18612.69;5041008;28;20029;-77
2023/08/16 00:48:16;;;;;;;8.05;3.67;;;;;;;21.81;100.00;-18613.13;5040078;28;20033;-77
2023/08/16 00:50:42;;;;;;;9.10;3.60;;;;;;;21.83;100.00;-18613.66;5041209;28;20041;-76
2023/08/16 00:53:09;;;;;;;4.72;3.30;;;;;;;21.74;100.00;-18611.22;5054837;28;20045;-77
2023/08/16 00:55:34;;;;;;;5.07;3.80;;;;;;;21.70;100.00;-18610.13;5040668;28;20055;-76
2023/08/16 00:58:00;;;;;;;8.23;4.03;;;;;;;21.75;100.00;-18611.34;5045009;28;20052;-76
2023/08/16 01:00:26;;;;;;;6.97;3.65;;;;;;;21.81;100.00;-18613.13;5045291;28;20045;-77
2023/08/16 01:02:52;;;;;;;6.65;3.38;;;;;;;21.80;100.00;-18612.84;5045440;28;20455;-76
2023/08/16 01:05:17;;;;;;;5.45;3.10;;;;;;;21.83;100.00;-18613.66;5044364;28;20124;-77
2023/08/16 01:07:43;;;;;;;7.03;3.40;;;;;;;21.77;100.00;-18611.88;5060812;28;20037;-77
2023/08/16 01:10:08;;;;;;;7.95;4.30;;;;;;;21.79;100.00;-18612.56;5058022;28;20194;-77
2023/08/16 01:12:47;;;;;;;6.13;3.53;;;;;;;21.88;100.00;-18614.75;5058387;28;20146;-77
2023/08/16 01:15:18;;;;;;;6.57;3.80;;;;;;;21.94;100.00;-18616.50;5044241;28;20407;-77
2023/08/16 01:17:44;;;;;;;7.15;3.60;;;;;;;22.04;100.00;-18619.09;5045654;28;20485;-75
2023/08/16 01:20:10;;;;;;;7.47;4.18;;;;;;;21.82;100.00;-18613.25;5044742;28;20037;-77
2023/08/16 01:23:05;;;;;;;6.90;3.78;;;;;;;21.82;100.00;-18613.25;5044950;28;20033;-77
2023/08/16 01:25:31;;;;;;;6.35;4.63;;;;;;;21.74;100.00;-18611.22;5043664;28;20052;-76
2023/08/16 01:27:58;;;;;;;5.72;4.00;;;;;;;21.78;100.00;-18612.31;5045866;28;20686;-76
2023/08/16 01:30:24;;;;;;;6.13;3.90;;;;;;;21.84;100.00;-18613.78;5049012;28;20047;-77
2023/08/16 01:32:49;;;;;;;6.95;4.30;;;;;;;21.71;100.00;-18610.41;5042425;28;20132;-77
2023/08/16 01:35:16;;;;;;;7.10;4.40;;;;;;;21.83;100.00;-18613.66;5040434;28;20526;-76
2023/08/16 01:37:43;;;;;;;7.35;4.10;;;;;;;21.74;100.00;-18611.22;5042788;28;20465;-77
2023/08/16 01:40:09;;;;;;;6.93;4.20;;;;;;;21.84;100.00;-18613.94;5040953;28;20078;-77
2023/08/16 01:42:39;;;;;;;6.85;4.43;;;;;;;21.79;100.00;-18612.44;5042440;28;20048;-77
2023/08/16 01:45:07;;;;;;;9.27;4.80;;;;;;;21.75;100.00;-18611.47;5041600;28;20362;-77
2023/08/16 01:47:33;;;;;;;9.13;4.32;;;;;;;21.65;100.00;-18608.75;5041931;28;20044;-77
2023/08/16 01:50:00;;;;;;;8.57;4.15;;;;;;;21.57;100.00;-18606.59;5042300;28;20094;-77
2023/08/16 01:52:26;;;;;;;8.35;4.00;;;;;;;21.69;100.00;-18609.84;5041675;28;20072;-77
2023/08/16 01:54:52;;;;;;;8.68;3.95;;;;;;;21.65;100.00;-18608.63;5041819;28;20052;-77
2023/08/16 01:57:17;;;;;;;5.70;4.28;;;;;;;21.57;100.00;-18606.72;5041736;28;20041;-77
2023/08/16 01:59:43;;;;;;;6.88;3.53;;;;;;;21.60;100.00;-18607.41;5041570;28;20033;-76
2023/08/16 02:02:08;;;;;;;4.88;2.80;;;;;;;21.67;100.00;-18609.19;5039399;28;22226;-76
2023/08/16 02:04:33;;;;;;;7.15;3.28;;;;;;;21.75;100.00;-18611.34;5037199;28;20530;-77
2023/08/16 02:06:58;;;;;;;5.45;3.15;;;;;;;;;;5040234;28;20480;-76
2023/08/16 02:09:24;;;;;;;6.63;3.40;;;;;;;21.75;100.00;-18611.47;5039657;28;20129;-77
2023/08/16 02:11:49;;;;;;;6.22;3.10;;;;;;;21.73;100.00;-18610.94;5040251;28;20311;-76
2023/08/16 02:14:15;;;;;;;4.53;3.00;;;;;;;21.63;100.00;-18608.34;5039118;28;20058;-76
2023/08/16 02:16:40;;;;;;;7.13;3.35;;;;;;;21.69;100.00;-18609.72;5039567;28;20516;-76
2023/08/16 02:19:05;;;;;;;5.18;3.25;;;;;;;21.68;100.00;-18609.44;5055099;28;20051;-77
2023/08/16 02:21:31;;;;;;;5.85;3.42;;;;;;;21.61;100.00;-18607.81;5054677;28;20052;-77
2023/08/16 02:23:56;;;;;;;6.70;4.35;;;;;;;21.09;100.00;-18593.81;5040980;28;20455;-77
2023/08/16 02:26:22;;;;;;;6.30;4.22;;;;;;;21.19;100.00;-18596.66;5038641;28;20065;-77
2023/08/16 02:28:48;;;;;;;7.13;4.68;;;;;;;21.18;100.00;-18596.38;5039419;28;20044;-77
2023/08/16 02:31:14;;;;;;;8.77;5.07;;;;;;;21.27;100.00;-18598.56;5038206;28;20040;-77
2023/08/16 02:33:39;;;;;;;7.88;4.80;;;;;;;21.33;100.00;-18600.19;5039575;28;20043;-77
2023/08/16 02:36:04;;;;;;;7.47;5.50;;;;;;;21.33;100.00;-18600.19;5038730;28;20136;-76
2023/08/16 02:38:30;;;;;;;9.10;5.60;;;;;;;21.16;100.00;-18595.72;5038948;28;20048;-77
2023/08/16 02:40:55;;;;;;;9.35;4.88;;;;;;;21.13;100.00;-18595.03;5039547;28;20047;-77
2023/08/16 02:43:21;;;;;;;9.00;5.25;;;;;;;21.14;100.00;-18595.31;5039139;28;20454;-77
2023/08/16 02:45:46;;;;;;;10.18;5.45;;;;;;;21.14;100.00;-18595.16;5038198;28;20416;-78
2023/08/16 02:48:11;;;;;;;7.85;5.20;;;;;;;21.16;100.00;-18595.72;5054116;28;20047;-77
2023/08/16 02:50:37;;;;;;;8.02;4.90;;;;;;;21.06;100.00;-18593.00;5038826;28;20053;-77
2023/08/16 02:53:03;;;;;;;7.68;4.80;;;;;;;20.95;100.00;-18590.13;5038846;28;20072;-77
2023/08/16 02:55:29;;;;;;;8.60;4.65;;;;;;;21.08;100.00;-18593.53;5038214;28;20051;-78
2023/08/16 02:57:55;;;;;;;6.65;4.68;;;;;;;20.92;100.00;-18589.31;5039932;28;20755;-76
2023/08/16 03:00:21;;;;;;;8.73;4.18;;;;;;;20.88;100.00;-18588.38;5038533;28;20033;-78
2023/08/16 03:02:46;;;;;;;6.30;3.75;;;;;;;20.93;100.00;-18589.72;5052420;28;20127;-78
2023/08/16 03:05:12;;;;;;;6.38;4.70;;;;;;;20.80;100.00;-18586.19;5036995;28;20504;-76
2023/08/16 03:07:39;;;;;;;7.18;4.57;;;;;;;20.77;100.00;-18585.38;5038729;28;20069;-77
2023/08/16 03:10:05;;;;;;;7.85;4.60;;;;;;;20.85;100.00;-18587.56;5038438;28;20052;-77
2023/08/16 03:12:30;;;;;;;8.52;4.97;;;;;;;20.76;100.00;-18584.97;5052932;28;20496;-78
2023/08/16 03:14:55;;;;;;;8.38;4.95;;;;;;;20.71;100.00;-18583.88;5039149;28;20045;-77
2023/08/16 03:17:21;;;;;;;6.95;4.88;;;;;;;20.61;100.00;-18581.03;5038121;28;20106;-77
2023/08/16 03:19:46;;;;;;;6.03;4.63;;;;;;;20.76;100.00;-18585.09;5037438;28;20616;-77
2023/08/16 03:22:11;;;;;;;8.95;4.97;;;;;;;20.76;100.00;-18584.97;5037754;28;20416;-77
2023/08/16 03:24:37;;;;;;;8.18;4.88;;;;;;;20.76;100.00;-18585.09;5037091;28;20511;-77
2023/08/16 03:27:02;;;;;;;6.03;4.63;;;;;;;20.77;100.00;-18585.38;5039036;28;20048;-76
2023/08/16 03:29:28;;;;;;;6.43;4.50;;;;;;;20.61;100.00;-18581.03;5037873;28;20642;-77
2023/08/16 03:31:53;;;;;;;5.93;4.00;;;;;;;20.55;100.00;-18579.38;5053931;28;20033;-76
2023/08/16 03:34:19;;;;;;;7.85;4.50;;;;;;;20.54;100.00;-18579.25;5035757;28;20060;-77
2023/08/16 03:36:44;;;;;;;7.05;4.47;;;;;;;20.43;100.00;-18576.41;5037825;28;20488;-78
2023/08/16 03:39:11;;;;;;;7.10;4.47;;;;;;;20.48;100.00;-18577.63;5037974;28;20040;-77
2023/08/16 03:41:37;;;;;;;6.82;4.28;;;;;;;20.45;100.00;-18576.78;5039367;28;20523;-77
2023/08/16 03:44:04;;;;;;;8.35;4.28;;;;;;;20.32;100.00;-18573.41;5038313;28;20048;-77
2023/08/16 03:46:29;;;;;;;8.75;4.88;;;;;;;20.34;100.00;-18573.94;5037962;28;20048;-77
2023/08/16 03:48:54;;;;;;;8.55;4.60;;;;;;;20.33;100.00;-18573.53;5038521;28;20041;-77
2023/08/16 03:51:20;;;;;;;8.68;4.75;;;;;;;20.34;100.00;-18573.81;5053444;28;20049;-76
2023/08/16 03:53:45;;;;;;;9.48;5.07;;;;;;;20.43;100.00;-18576.25;5037640;28;20048;-76
2023/08/16 03:56:11;;;;;;;7.07;4.40;;;;;;;20.61;100.00;-18581.03;5036996;28;20052;-76
2023/08/16 03:58:36;;;;;;;10.10;4.55;;;;;;;20.53;100.00;-18578.97;5038279;28;20399;-77
2023/08/16 04:01:01;;;;;;;7.00;4.30;;;;;;;20.50;100.00;-18578.28;5038875;28;20559;-77
2023/08/16 04:03:27;;;;;;;6.30;4.50;;;;;;;20.47;100.00;-18577.34;5039546;28;20175;-76
2023/08/16 04:05:52;;;;;;;6.43;4.43;;;;;;;20.52;100.00;-18578.72;5052667;28;20063;-76
2023/08/16 04:08:18;;;;;;;7.80;4.47;;;;;;;20.54;100.00;-18579.13;5036627;28;21422;-76
2023/08/16 04:10:43;;;;;;;7.40;4.65;;;;;;;20.48;100.00;-18577.75;5038741;28;20041;-76
2023/08/16 04:13:09;;;;;;;8.80;4.20;;;;;;;20.40;100.00;-18575.56;5036787;28;20102;-76
2023/08/16 04:15:34;;;;;;;8.45;4.65;;;;;;;20.47;100.00;-18577.47;5036452;28;20049;-78
2023/08/16 04:17:59;;;;;;;8.35;4.47;;;;;;;20.53;100.00;-18578.97;5037876;28;20037;-78
2023/08/16 04:20:25;;;;;;;7.43;4.68;;;;;;;20.51;100.00;-18578.44;5037552;28;20374;-77
2023/08/16 04:22:51;;;;;;;8.63;4.40;;;;;;;20.46;100.00;-18577.22;5037654;28;20458;-77
2023/08/16 04:25:16;;;;;;;6.07;3.90;;;;;;;20.47;100.00;-18577.34;5036293;28;20045;-76
2023/08/16 04:27:42;;;;;;;6.70;4.10;;;;;;;20.39;100.00;-18575.16;5037779;28;20045;-76
2023/08/16 04:30:09;;;;;;;8.35;4.07;;;;;;;20.50;100.00;-18578.28;5052197;28;20043;-77
2023/08/16 04:32:34;;;;;;;6.25;4.45;;;;;;;20.38;100.00;-18575.03;5041994;28;20045;-77
2023/08/16 04:34:59;;;;;;;10.57;5.18;;;;;;;20.48;100.00;-18577.75;5041742;28;20115;-77
2023/08/16 04:37:25;;;;;;;6.93;4.30;;;;;;;20.38;100.00;-18575.03;5042768;28;20037;-76
2023/08/16 04:39:50;;;;;;;7.60;4.70;;;;;;;20.32;100.00;-18573.41;5042692;28;20085;-76
2023/08/16 04:42:16;;;;;;;8.77;4.90;;;;;;;20.42;100.00;-18575.97;5041109;28;20040;-76
2023/08/16 04:44:42;;;;;;;9.02;5.15;;;;;;;20.46;100.00;-18577.06;5043300;28;20443;-76
2023/08/16 04:47:07;;;;;;;9.32;5.07;;;;;;;20.45;100.00;-18576.94;5043117;28;20082;-77
2023/08/16 04:49:33;;;;;;;8.82;4.95;;;;;;;20.45;100.00;-18576.94;5042537;28;20428;-77
2023/08/16 04:51:58;;;;;;;10.50;5.68;;;;;;;20.41;100.00;-18575.84;5043416;28;20408;-77
2023/08/16 04:54:24;;;;;;;8.75;4.82;;;;;;;20.44;100.00;-18576.53;5042574;28;20045;-77
2023/08/16 04:56:50;;;;;;;9.10;5.55;;;;;;;20.34;100.00;-18573.81;5043386;28;20051;-76
2023/08/16 04:59:16;;;;;;;10.65;5.32;;;;;;;20.32;100.00;-18573.25;5044026;28;20044;-78
2023/08/16 05:01:41;;;;;;;11.50;5.88;;;;;;;20.38;100.00;-18575.03;5044844;28;20047;-77
2023/08/16 05:04:08;;;;;;;11.98;6.45;;;;;;;20.31;100.00;-18573.13;5040090;28;20037;-77
2023/08/16 05:06:35;;;;;;;8.30;6.05;;;;;;;20.34;100.00;-18573.81;5042664;28;20109;-77
2023/08/16 05:09:00;;;;;;;9.80;5.97;;;;;;;20.21;100.00;-18570.41;5043606;28;20048;-77
2023/08/16 05:11:26;;;;;;;11.68;6.38;;;;;;;20.31;100.00;-18573.00;5058148;28;20045;-77
2023/08/16 05:13:51;;;;;;;11.07;7.07;;;;;;;20.25;100.00;-18571.50;5043793;28;20181;-77
2023/08/16 05:16:17;;;;;;;11.18;6.90;;;;;;;20.26;100.00;-18571.91;5042453;28;20698;-78
2023/08/16 05:18:43;;;;;;;13.65;8.20;;;;;;;20.31;100.00;-18573.13;5044465;28;20052;-77
2023/08/16 05:21:08;;;;;;;13.00;7.50;;;;;;;20.38;100.00;-18574.91;5041946;28;21467;-77
2023/08/16 05:23:34;;;;;;;13.02;7.72;;;;;;;20.35;100.00;-18574.22;5041313;28;20061;-77
2023/08/16 05:26:00;;;;;;;17.98;8.88;;;;;;;20.35;100.00;-18574.22;5043278;28;20396;-78
2023/08/16 05:28:25;;;;;;;11.15;8.00;;;;;;;20.32;100.00;-18573.25;5043368;28;20130;-77
2023/08/16 05:30:51;;;;;;;14.68;7.93;;;;;;;20.28;100.00;-18572.31;5043279;28;20068;-77
2023/08/16 05:33:17;;;;;;;16.27;9.38;;;;;;;20.20;100.00;-18570.13;5041433;28;20045;-77
2023/08/16 05:35:42;;;;;;;16.33;9.30;;;;;;;20.08;100.00;-18566.88;5040487;28;20084;-77
2023/08/16 05:38:07;;;;;;;13.40;8.80;;;;;;;20.13;100.00;-18568.22;5042222;28;20428;-76
2023/08/16 05:40:33;;;;;;;15.80;9.43;;;;;;;20.03;100.00;-18565.78;5043811;28;20064;-77
2023/08/16 05:42:59;;;;;;;15.23;9.38;;;;;;;20.11;100.00;-18567.69;5041937;28;20132;-77
2023/08/16 05:45:28;;;;;;;15.30;9.90;;;;;;;19.97;100.00;-18564.16;5038070;28;20401;-76
2023/08/16 05:47:54;;;;;;;15.35;9.75;;;;;;;19.87;100.00;-18561.41;5038278;28;20045;-77
2023/08/16 05:50:20;;;;;;;17.05;9.93;;;;;;;19.94;100.00;-18563.19;5054689;28;20137;-77
2023/08/16 05:52:46;;;;;;;15.35;10.00;;;;;;;19.92;100.00;-18562.78;5039369;28;20619;-78
2023/08/16 05:55:12;;;;;;;15.48;9.60;;;;;;;19.87;100.00;-18561.41;5035963;28;20041;-77
2023/08/16 05:57:37;;;;;;;14.60;10.00;;;;;;;19.78;100.00;-18559.09;5039618;28;20049;-77
2023/08/16 06:00:03;;;;;;;17.70;10.13;;;;;;;19.93;100.00;-18563.06;5039739;28;20890;-77
2023/08/16 06:02:28;;;;;;;16.75;9.95;;;;;;;19.90;100.00;-18562.22;5038063;28;20041;-77
2023/08/16 06:04:54;;;;;;;16.92;11.40;;;;;;;19.98;100.00;-18564.28;5039130;28;20037;-77
2023/08/16 06:07:21;;;;;;;16.30;10.75;;;;;;;19.95;100.00;-18563.59;5038215;28;20044;-77
2023/08/16 06:09:46;;;;;;;16.38;9.43;;;;;;;19.92;100.00;-18562.78;5041330;28;20072;-77
2023/08/16 06:12:12;;;;;;;16.73;9.85;;;;;;;19.97;100.00;-18564.16;5043317;28;20500;-77
2023/08/16 06:14:38;;;;;;;14.95;9.75;;;;;;;19.87;100.00;-18561.41;5043199;28;20051;-77
2023/08/16 06:17:04;;;;;;;17.17;10.00;;;;;;;19.92;100.00;-18562.78;5043681;28;20122;-77
2023/08/16 06:19:29;;;;;;;16.98;10.70;;;;;;;19.91;100.00;-18562.50;5042250;28;20072;-78
2023/08/16 06:21:54;;;;;;;19.83;10.38;;;;;;;19.86;100.00;-18561.16;5038429;28;20654;-78
2023/08/16 06:24:20;;;;;;;13.02;9.70;;;;;;;19.87;100.00;-18561.28;5037494;28;20041;-77
2023/08/16 06:26:45;;;;;;;20.73;10.10;;;;;;;19.98;100.00;-18564.41;5037876;28;20047;-78
2023/08/16 06:29:10;;;;;;;17.50;9.82;;;;;;;19.87;100.00;-18561.41;5040789;28;20136;-77
2023/08/16 06:31:36;;;;;;;16.83;10.30;;;;;;;19.97;100.00;-18564.16;5036043;28;20842;-77
2023/08/16 06:34:01;;;;;;;14.98;9.48;;;;;;;19.90;100.00;-18562.22;5039034;28;20041;-78
2023/08/16 06:36:27;;;;;;;14.93;9.88;;;;;;;19.94;100.00;-18563.31;5036313;28;20389;-77
2023/08/16 06:38:53;;;;;;;16.05;10.30;;;;;;;19.92;100.00;-18562.66;5039037;28;20075;-77
2023/08/16 06:41:19;;;;;;;15.60;9.32;;;;;;;19.93;100.00;-18562.91;5039708;28;20443;-77
2023/08/16 06:43:44;;;;;;;19.00;10.27;;;;;;;19.99;100.00;-18564.56;5039999;28;20095;-78
2023/08/16 06:46:10;;;;;;;17.60;10.32;;;;;;;20.01;100.00;-18565.22;5035942;28;20480;-78
2023/08/16 06:48:35;;;;;;;17.27;10.13;;;;;;;19.93;100.00;-18563.06;5038447;28;20048;-78
2023/08/16 06:51:01;;;;;;;17.15;11.02;;;;;;;19.88;100.00;-18561.56;5054723;28;20063;-77
2023/08/16 06:53:27;;;;;;;17.00;10.77;;;;;;;19.88;100.00;-18561.69;5038053;28;21861;-77
2023/08/16 06:55:55;;;;;;;15.35;10.05;;;;;;;19.88;100.00;-18561.69;5038539;28;20088;-77
2023/08/16 06:58:20;;;;;;;19.85;9.52;;;;;;;19.92;100.00;-18562.78;5037860;28;20052;-77
2023/08/16 07:00:47;;;;;;;17.55;9.85;;;;;;;20.00;100.00;-18564.81;5037945;28;20044;-79
2023/08/16 07:03:13;;;;;;;18.58;10.43;;;;;;;19.93;100.00;-18562.91;5039109;28;20056;-77
2023/08/16 07:05:39;;;;;;;17.92;10.55;;;;;;;20.01;100.00;-18565.22;5036670;28;20041;-78
2023/08/16 07:08:05;;;;;;;17.15;10.23;;;;;;;19.97;100.00;-18564.00;5037443;28;20107;-77
2023/08/16 07:10:30;;;;;;;16.95;9.85;;;;;;;19.96;100.00;-18563.72;5038325;28;20047;-78
2023/08/16 07:12:56;;;;;;;16.33;9.65;;;;;;;20.09;100.00;-18567.13;5038232;28;20049;-79
2023/08/16 07:15:21;;;;;;;16.65;9.88;;;;;;;20.02;100.00;-18565.50;5052720;28;20534;-78
2023/08/16 07:17:47;;;;;;;12.40;9.55;;;;;;;19.94;100.00;-18563.31;5038560;28;20257;-77
2023/08/16 07:20:12;;;;;;;12.52;9.27;;;;;;;19.97;100.00;-18564.00;5037885;28;20048;-78
2023/08/16 07:22:38;;;;;;;16.15;9.90;;;;;;;20.20;100.00;-18570.13;5038658;28;20610;-78
2023/08/16 07:25:07;;;;;;;15.52;9.80;;;;;;;20.19;100.00;-18569.84;5037891;28;20097;-78
2023/08/16 07:27:33;;;;;;;14.70;8.73;;;;;;;20.15;100.00;-18568.78;5037668;28;20071;-77
2023/08/16 07:29:59;;;;;;;16.05;9.65;;;;;;;20.49;100.00;-18578.03;5038746;28;20432;-78
2023/08/16 07:32:24;;;;;;;13.27;9.15;;;;;;;20.49;100.00;-18578.03;5037836;28;20668;-76
2023/08/16 07:34:50;;;;;;;17.17;10.43;;;;;;;20.37;100.00;-18574.75;5036104;28;20057;-78
2023/08/16 07:37:15;;;;;;;13.80;8.35;;;;;;;20.45;100.00;-18576.94;5036920;28;20049;-78
2023/08/16 07:39:40;;;;;;;15.85;9.50;;;;;;;20.61;100.00;-18581.16;5037897;28;20171;-77
2023/08/16 07:42:07;;;;;;;16.45;7.75;;;;;;;20.51;100.00;-18578.44;5038842;28;20549;-78
2023/08/16 07:44:35;;;;;;;11.40;8.02;;;;;;;20.65;100.00;-18582.25;5037172;28;20167;-77
2023/08/16 07:47:00;;;;;;;14.45;8.45;;;;;;;20.69;100.00;-18583.19;5037871;28;20037;-78
2023/08/16 07:49:26;;;;;;;16.98;8.98;;;;;;;20.69;100.00;-18583.34;5036014;28;20047;-78
2023/08/16 07:51:55;;;;;;;14.23;8.68;;;;;;;20.69;100.00;-18583.19;5038545;28;20091;-79
2023/08/16 07:54:20;;;;;;;15.57;9.10;;;;;;;20.74;100.00;-18584.56;5037562;28;20053;-77
2023/08/16 07:56:45;;;;;;;12.15;8.20;;;;;;;20.59;100.00;-18580.47;5054184;28;20471;-76
2023/08/16 07:59:11;;;;;;;13.10;8.80;;;;;;;20.75;100.00;-18584.69;5038068;28;20041;-78
2023/08/16 08:01:36;;;;;;;13.15;8.50;;;;;;;20.87;100.00;-18588.09;5037851;28;20071;-78
2023/08/16 08:04:02;;;;;;;13.73;8.27;;;;;;;20.82;100.00;-18586.59;5035630;28;20029;-77
2023/08/16 08:06:28;;;;;;;15.75;9.27;;;;;;;21.00;100.00;-18591.50;5035481;28;20063;-76
2023/08/16 08:08:53;;;;;;;12.35;8.07;;;;;;;20.92;100.00;-18589.31;5039419;28;20041;-78
2023/08/16 08:11:18;;;;;;;12.30;8.20;;;;;;;20.87;100.00;-18588.09;5037547;28;20045;-77
2023/08/16 08:13:44;;;;;;;15.00;8.40;;;;;;;21.06;100.00;-18593.00;5039377;28;20037;-76
2023/08/16 08:16:09;;;;;;;13.07;7.85;;;;;;;21.02;100.00;-18592.03;5038064;28;20063;-77
2023/08/16 08:18:35;;;;;;;18.88;7.88;;;;;;;20.97;100.00;-18590.69;5037505;28;20411;-77
2023/08/16 08:21:00;;;;;;;9.80;7.78;;;;;;;21.01;100.00;-18591.78;5037481;28;20105;-76
2023/08/16 08:23:26;;;;;;;12.38;7.50;;;;;;;21.02;100.00;-18591.91;5037740;28;20040;-76
2023/08/16 08:25:51;;;;;;;15.65;7.40;;;;;;;21.13;100.00;-18595.03;5039055;28;20045;-77
2023/08/16 08:28:18;;;;;;;10.68;7.13;;;;;;;21.24;100.00;-18597.88;5037236;28;20063;-77
2023/08/16 08:30:44;;;;;;;12.80;7.00;;;;;;;21.25;100.00;-18598.16;5037474;28;20033;-77
2023/08/16 08:33:10;;;;;;;8.07;6.07;;;;;;;21.40;100.00;-18602.25;5037561;28;20095;-78
2023/08/16 08:35:36;;;;;;;11.52;6.45;;;;;;;21.52;100.00;-18605.38;5038281;28;20037;-77
2023/08/16 08:38:02;;;;;;;12.27;7.03;;;;;;;21.72;100.00;-18610.66;5037699;28;20041;-78
2023/08/16 08:40:31;;;;;;;7.68;5.55;;;;;;;21.83;100.00;-18613.66;5037583;28;20044;-77
2023/08/16 08:43:03;;;;;;;7.00;5.32;;;;;;;21.95;100.00;-18616.66;5038315;28;20670;-77
2023/08/16 08:45:33;;;;;;;9.70;5.47;;;;;;;22.02;100.00;-18618.53;5037403;28;20118;-79
2023/08/16 08:47:59;;;;;;;8.57;5.00;;;;;;;22.01;100.00;-18618.28;5038669;28;20044;-76
2023/08/16 08:50:30;;;;;;;9.55;5.63;;;;;;;22.17;100.00;-18622.63;5037155;28;20048;-76
2023/08/16 08:52:56;;;;;;;8.30;5.03;;;;;;;22.40;100.00;-18628.59;5039469;28;20079;-77
2023/08/16 08:55:25;;;;;;;11.00;5.07;;;;;;;22.81;100.00;-18639.47;5036242;28;20087;-76
2023/08/16 08:57:55;;;;;;;6.68;4.80;;;;;;;23.01;100.00;-18644.91;5037886;28;20040;-77
2023/08/16 09:00:21;;;;;;;6.68;4.15;;;;;;;23.14;100.00;-18648.41;5037037;28;20056;-76
2023/08/16 09:02:52;;;;;;;8.15;3.95;;;;;;;23.29;100.00;-18652.22;5037560;28;20073;-76
2023/08/16 09:05:21;;;;;;;8.90;4.13;;;;;;;23.25;100.00;-18651.28;5037817;28;20056;-76
2023/08/16 09:07:48;;;;;;;7.00;4.07;;;;;;;23.13;100.00;-18648.00;5038453;28;20052;-77
2023/08/16 09:10:15;;;;;;;8.23;4.20;;;;;;;23.14;100.00;-18648.41;5051580;28;20037;-77
2023/08/16 09:12:40;;;;;;;7.97;4.68;;;;;;;23.04;100.00;-18645.72;5037613;28;20041;-76
2023/08/16 09:15:07;;;;;;;7.15;3.85;;;;;;;23.25;100.00;-18651.13;5037341;28;20053;-77
2023/08/16 09:17:36;;;;;;;8.18;3.83;;;;;;;23.30;100.00;-18652.50;5039892;28;20048;-78
2023/08/16 09:20:05;;;;;;;8.35;4.25;;;;;;;23.42;100.00;-18655.75;5043323;28;20071;-77
2023/08/16 09:22:31;;;;;;;10.45;4.20;;;;;;;23.56;100.00;-18659.41;5040920;28;20049;-77
2023/08/16 09:24:58;;;;;;;8.77;4.47;;;;;;;23.59;100.00;-18660.22;5039728;28;20045;-78
2023/08/16 09:27:23;;;;;;;8.50;4.85;;;;;;;23.71;100.00;-18663.34;5040325;28;20049;-78
2023/08/16 09:29:54;;;;;;;7.45;3.75;;;;;;;23.88;100.00;-18667.97;5040565;28;20048;-77
2023/08/16 09:32:19;;;;;;;8.57;3.50;;;;;;;24.04;100.00;-18672.28;5054561;28;20044;-77
2023/08/16 09:34:45;;;;;;;5.95;3.10;;;;;;;24.39;100.00;-18681.38;5040000;28;20045;-79
2023/08/16 09:37:12;;;;;;;6.18;3.47;;;;;;;24.46;100.00;-18683.41;5055338;28;20048;-77
2023/08/16 09:39:38;;;;;;;7.00;3.55;;;;;;;24.63;100.00;-18687.75;5038275;28;20044;-78
2023/08/16 09:42:08;;;;;;;5.82;3.28;;;;;;;24.84;100.00;-18693.28;5041156;28;20041;-78
2023/08/16 09:44:36;;;;;;;5.80;3.10;;;;;;;24.93;100.00;-18695.72;5038374;28;20148;-76
2023/08/16 09:47:12;;;;;;;8.98;3.40;;;;;;;24.90;100.00;-18695.06;5040082;28;20029;-77
2023/08/16 09:49:39;;;;;;;7.15;3.85;;;;;;;25.01;100.00;-18697.75;5041491;28;20040;-78
2023/08/16 09:52:11;;;;;;;5.82;3.38;;;;;;;25.37;100.00;-18707.38;5041548;28;20178;-77
2023/08/16 09:54:37;;;;;;;5.70;2.50;;;;;;;25.51;100.00;-18711.16;5057268;28;20049;-77
2023/08/16 09:57:03;;;;;;;6.72;2.95;;;;;;;25.24;100.00;-18703.84;5041132;28;20033;-78
2023/08/16 09:59:30;;;;;;;7.90;3.78;;;;;;;25.19;100.00;-18702.63;5041008;28;20116;-75
2023/08/16 10:01:56;;;;;;;7.30;3.33;;;;;;;25.15;100.00;-18701.69;5042837;28;20140;-78
2023/08/16 10:04:22;;;;;;;6.35;3.10;;;;;;;25.09;100.00;-18700.06;5039988;28;20037;-77
2023/08/16 10:06:49;;;;;;;7.32;3.67;;;;;;;25.39;100.00;-18707.91;5040854;28;20048;-77
2023/08/16 10:09:15;;;;;;;8.02;3.88;;;;;;;25.38;100.00;-18707.66;5040873;28;20064;-78
2023/08/16 10:11:43;;;;;;;6.43;3.33;;;;;;;25.65;100.00;-18714.81;5041870;28;20064;-76
2023/08/16 10:14:09;;;;;;;7.03;3.45;;;;;;;25.46;100.00;-18709.69;5041621;28;20044;-77
2023/08/16 10:16:38;;;;;;;7.35;4.30;;;;;;;25.18;100.00;-18702.50;5040676;28;20044;-77
2023/08/16 10:19:07;;;;;;;7.65;3.85;;;;;;;25.40;100.00;-18708.19;5040522;28;20045;-77
2023/08/16 10:21:36;;;;;;;7.18;3.95;;;;;;;25.41;100.00;-18708.59;5039538;28;21046;-78
2023/08/16 10:24:05;;;;;;;5.35;3.30;;;;;;;25.37;100.00;-18707.38;5057190;28;20043;-77
2023/08/16 10:26:34;;;;;;;7.85;4.22;;;;;;;25.36;100.00;-18707.25;5039668;28;20056;-75
2023/08/16 10:29:07;;;;;;;6.25;3.13;;;;;;;25.52;100.00;-18711.44;5046368;28;20110;-75
2023/08/16 10:31:38;;;;;;;4.35;2.67;;;;;;;25.50;100.00;-18710.91;5040391;28;20044;-79
2023/08/16 10:34:07;;;;;;;9.07;2.67;;;;;;;25.74;100.00;-18717.25;5041625;28;20045;-77
2023/08/16 10:36:33;;;;;;;5.05;2.70;;;;;;;25.92;100.00;-18721.84;5039489;28;20162;-78
2023/08/16 10:38:59;;;;;;;6.90;2.80;;;;;;;26.27;100.00;-18731.19;5042884;28;20536;-75
2023/08/16 10:41:25;;;;;;;4.95;2.70;;;;;;;26.18;100.00;-18728.88;5041890;28;20645;-77
2023/08/16 10:43:52;;;;;;;4.57;2.65;;;;;;;26.17;100.00;-18728.47;5042883;28;20088;-78
2023/08/16 10:46:37;;;;;;;4.72;2.50;;;;;;;26.41;100.00;-18734.84;5039515;28;20178;-76
2023/08/16 10:49:08;;;;;;;7.72;2.90;;;;;;;26.49;100.00;-18737.00;5032666;28;20126;-77
2023/08/16 10:51:46;;;;;;;6.47;3.25;;;;;;;26.55;99.47;-18738.75;5037078;28;20041;-78
2023/08/16 10:54:12;;;;;;;6.47;2.60;;;;;;;26.45;100.00;-18736.06;5042427;28;20123;-77
2023/08/16 10:56:44;;;;;;;8.60;2.83;;;;;;;26.43;99.60;-18735.50;5042194;28;21634;-77
2023/08/16 10:59:12;;;;;;;4.63;2.67;;;;;;;26.38;100.00;-18734.03;5041634;28;20064;-76
2023/08/16 11:01:45;;;;;;;4.50;2.70;;;;;;;26.42;96.23;-18735.25;5040536;28;20400;-75
2023/08/16 11:04:11;;;;;;;4.57;2.47;;;;;;;26.70;97.58;-18742.69;5032863;28;20037;-75
2023/08/16 11:06:39;;;;;;;4.30;2.33;;;;;;;26.54;98.90;-18738.50;5039262;28;20124;-78
2023/08/16 11:09:05;;;;;;;5.32;2.60;;;;;;;26.50;96.55;-18737.41;5040470;28;20877;-78
2023/08/16 11:11:30;;;;;;;5.60;2.55;;;;;;;26.48;96.67;-18736.88;5041225;28;20052;-75